sensor_id;sensor_type;location;lat;lon;timestamp;pressure;altitude;pressure_sealevel;temperature;humidity
31761;BME280;18335;51.486;7.562;2022-07-17T00:01:45;101299.69;;;15.22;100.00
31761;BME280;18335;51.486;7.562;2022-07-17T00:04:12;101300.91;;;15.20;100.00
31761;BME280;18335;51.486;7.562;2022-07-17T00:06:40;101304.81;;;15.17;100.00
31761;BME280;18335;51.486;7.562;2022-07-17T00:09:07;101302.91;;;15.02;100.00
31761;BME280;18335;51.486;7.562;2022-07-17T00:11:34;101298.25;;;14.94;100.00
31761;BME280;18335;51.486;7.562;2022-07-17T00:14:01;101293.81;;;15.01;100.00
31761;BME280;18335;51.486;7.562;2022-07-17T00:16:28;101298.97;;;14.96;100.00
31761;BME280;18335;51.486;7.562;2022-07-17T00:18:55;101297.88;;;14.81;100.00
31761;BME280;18335;51.486;7.562;2022-07-17T00:21:22;101299.06;;;14.78;100.00
31761;BME280;18335;51.486;7.562;2022-07-17T00:23:50;101294.38;;;14.63;100.00
31761;BME280;18335;51.486;7.562;2022-07-17T00:26:16;101298.84;;;14.64;100.00
31761;BME280;18335;51.486;7.562;2022-07-17T00:28:43;101294.22;;;14.64;100.00
31761;BME280;18335;51.486;7.562;2022-07-17T00:31:10;101295.72;;;14.51;100.00
31761;BME280;18335;51.486;7.562;2022-07-17T00:33:37;101292.09;;;14.50;100.00
31761;BME280;18335;51.486;7.562;2022-07-17T00:36:04;101288.16;;;14.53;100.00
31761;BME280;18335;51.486;7.562;2022-07-17T00:38:31;101288.34;;;14.51;100.00
31761;BME280;18335;51.486;7.562;2022-07-17T00:40:59;101286.72;;;14.32;100.00
31761;BME280;18335;51.486;7.562;2022-07-17T00:43:26;101294.50;;;14.45;100.00
31761;BME280;18335;51.486;7.562;2022-07-17T00:45:55;101297.44;;;14.26;100.00
31761;BME280;18335;51.486;7.562;2022-07-17T00:48:22;101298.72;;;14.39;100.00
31761;BME280;18335;51.486;7.562;2022-07-17T00:50:49;101296.69;;;14.33;100.00
31761;BME280;18335;51.486;7.562;2022-07-17T00:53:17;101295.31;;;14.37;100.00
31761;BME280;18335;51.486;7.562;2022-07-17T00:55:45;101290.34;;;14.41;100.00
31761;BME280;18335;51.486;7.562;2022-07-17T00:58:18;101295.84;;;14.15;100.00
31761;BME280;18335;51.486;7.562;2022-07-17T01:00:45;101297.28;;;14.27;100.00
31761;BME280;18335;51.486;7.562;2022-07-17T01:03:13;101305.47;;;14.19;100.00
31761;BME280;18335;51.486;7.562;2022-07-17T01:05:40;101296.38;;;14.19;100.00
31761;BME280;18335;51.486;7.562;2022-07-17T01:08:07;101298.59;;;14.15;100.00
31761;BME280;18335;51.486;7.562;2022-07-17T01:10:34;101303.69;;;14.10;100.00
31761;BME280;18335;51.486;7.562;2022-07-17T01:13:00;101291.19;;;14.16;100.00
31761;BME280;18335;51.486;7.562;2022-07-17T01:15:29;101302.06;;;14.25;100.00
31761;BME280;18335;51.486;7.562;2022-07-17T01:17:56;101298.97;;;14.20;100.00
31761;BME280;18335;51.486;7.562;2022-07-17T01:20:23;101299.66;;;14.22;100.00
31761;BME280;18335;51.486;7.562;2022-07-17T01:22:51;101298.06;;;13.86;100.00
31761;BME280;18335;51.486;7.562;2022-07-17T01:25:22;101309.56;;;13.90;100.00
31761;BME280;18335;51.486;7.562;2022-07-17T01:27:49;101305.53;;;13.76;100.00
31761;BME280;18335;51.486;7.562;2022-07-17T01:30:16;101307.69;;;13.90;100.00
31761;BME280;18335;51.486;7.562;2022-07-17T01:32:43;101311.13;;;13.92;100.00
31761;BME280;18335;51.486;7.562;2022-07-17T01:35:12;101305.13;;;13.89;100.00
31761;BME280;18335;51.486;7.562;2022-07-17T01:37:40;101306.88;;;13.72;100.00
31761;BME280;18335;51.486;7.562;2022-07-17T01:40:10;101301.28;;;13.56;100.00
31761;BME280;18335;51.486;7.562;2022-07-17T01:42:38;101310.91;;;13.42;100.00
31761;BME280;18335;51.486;7.562;2022-07-17T01:45:06;101303.50;;;13.35;100.00
31761;BME280;18335;51.486;7.562;2022-07-17T01:47:33;101308.34;;;13.41;100.00
31761;BME280;18335;51.486;7.562;2022-07-17T01:50:01;101306.53;;;13.49;100.00
31761;BME280;18335;51.486;7.562;2022-07-17T01:52:28;101298.13;;;13.51;100.00
31761;BME280;18335;51.486;7.562;2022-07-17T01:54:56;101309.91;;;13.43;100.00
31761;BME280;18335;51.486;7.562;2022-07-17T01:57:24;101307.69;;;13.29;100.00
31761;BME280;18335;51.486;7.562;2022-07-17T01:59:50;101299.50;;;13.47;100.00
31761;BME280;18335;51.486;7.562;2022-07-17T02:02:17;101293.59;;;13.42;100.00
31761;BME280;18335;51.486;7.562;2022-07-17T02:04:44;101298.63;;;13.46;100.00
31761;BME280;18335;51.486;7.562;2022-07-17T02:07:11;101299.25;;;13.40;100.00
31761;BME280;18335;51.486;7.562;2022-07-17T02:09:38;101300.03;;;13.32;100.00
31761;BME280;18335;51.486;7.562;2022-07-17T02:12:06;101294.41;;;13.34;100.00
31761;BME280;18335;51.486;7.562;2022-07-17T02:14:34;101300.13;;;13.41;100.00
31761;BME280;18335;51.486;7.562;2022-07-17T02:17:01;101294.72;;;13.31;100.00
31761;BME280;18335;51.486;7.562;2022-07-17T02:19:28;101290.09;;;13.32;100.00
31761;BME280;18335;51.486;7.562;2022-07-17T02:21:55;101296.03;;;13.27;100.00
31761;BME280;18335;51.486;7.562;2022-07-17T02:24:22;101290.63;;;13.35;100.00
31761;BME280;18335;51.486;7.562;2022-07-17T02:26:48;101290.72;;;13.25;100.00
31761;BME280;18335;51.486;7.562;2022-07-17T02:29:15;101290.50;;;13.19;100.00
31761;BME280;18335;51.486;7.562;2022-07-17T02:31:43;101291.59;;;13.26;100.00
31761;BME280;18335;51.486;7.562;2022-07-17T02:34:10;101294.25;;;13.18;100.00
31761;BME280;18335;51.486;7.562;2022-07-17T02:36:37;101302.31;;;13.19;100.00
31761;BME280;18335;51.486;7.562;2022-07-17T02:39:04;101297.22;;;13.24;100.00
31761;BME280;18335;51.486;7.562;2022-07-17T02:41:31;101301.09;;;13.04;100.00
31761;BME280;18335;51.486;7.562;2022-07-17T02:43:57;101297.56;;;12.94;100.00
31761;BME280;18335;51.486;7.562;2022-07-17T02:46:24;101306.97;;;12.92;100.00
31761;BME280;18335;51.486;7.562;2022-07-17T02:48:52;101298.06;;;13.07;100.00
31761;BME280;18335;51.486;7.562;2022-07-17T02:51:19;101300.66;;;13.09;100.00
31761;BME280;18335;51.486;7.562;2022-07-17T02:53:46;101295.75;;;13.03;100.00
31761;BME280;18335;51.486;7.562;2022-07-17T02:56:13;101293.31;;;13.09;100.00
31761;BME280;18335;51.486;7.562;2022-07-17T02:58:39;101305.63;;;12.78;100.00
31761;BME280;18335;51.486;7.562;2022-07-17T03:01:06;101301.00;;;12.96;100.00
31761;BME280;18335;51.486;7.562;2022-07-17T03:03:33;101305.69;;;12.86;100.00
31761;BME280;18335;51.486;7.562;2022-07-17T03:06:01;101311.25;;;12.76;100.00
31761;BME280;18335;51.486;7.562;2022-07-17T03:08:27;101312.41;;;12.74;100.00
31761;BME280;18335;51.486;7.562;2022-07-17T03:10:54;101314.38;;;12.82;100.00
31761;BME280;18335;51.486;7.562;2022-07-17T03:13:21;101307.53;;;12.68;100.00
31761;BME280;18335;51.486;7.562;2022-07-17T03:15:48;101308.84;;;12.64;100.00
31761;BME280;18335;51.486;7.562;2022-07-17T03:18:14;101305.38;;;12.71;100.00
31761;BME280;18335;51.486;7.562;2022-07-17T03:20:41;101304.06;;;12.48;100.00
31761;BME280;18335;51.486;7.562;2022-07-17T03:23:09;101307.72;;;12.39;100.00
31761;BME280;18335;51.486;7.562;2022-07-17T03:25:36;101298.38;;;12.59;100.00
31761;BME280;18335;51.486;7.562;2022-07-17T03:28:03;101297.91;;;12.64;100.00
31761;BME280;18335;51.486;7.562;2022-07-17T03:30:30;101301.91;;;12.69;100.00
31761;BME280;18335;51.486;7.562;2022-07-17T03:32:56;101300.00;;;12.52;100.00
31761;BME280;18335;51.486;7.562;2022-07-17T03:35:23;101306.72;;;12.58;100.00
31761;BME280;18335;51.486;7.562;2022-07-17T03:37:50;101316.06;;;12.38;100.00
31761;BME280;18335;51.486;7.562;2022-07-17T03:40:18;101328.47;;;12.32;100.00
31761;BME280;18335;51.486;7.562;2022-07-17T03:42:45;101329.03;;;12.36;100.00
31761;BME280;18335;51.486;7.562;2022-07-17T03:45:12;101333.56;;;12.54;100.00
31761;BME280;18335;51.486;7.562;2022-07-17T03:47:39;101329.75;;;12.65;100.00
31761;BME280;18335;51.486;7.562;2022-07-17T03:50:06;101343.06;;;12.23;100.00
31761;BME280;18335;51.486;7.562;2022-07-17T03:52:33;101341.06;;;12.52;100.00
31761;BME280;18335;51.486;7.562;2022-07-17T03:55:00;101348.91;;;12.38;100.00
31761;BME280;18335;51.486;7.562;2022-07-17T03:57:28;101339.66;;;12.48;100.00
31761;BME280;18335;51.486;7.562;2022-07-17T03:59:54;101334.19;;;12.48;100.00
31761;BME280;18335;51.486;7.562;2022-07-17T04:02:21;101327.72;;;12.67;100.00
31761;BME280;18335;51.486;7.562;2022-07-17T04:04:48;101320.28;;;12.59;100.00
31761;BME280;18335;51.486;7.562;2022-07-17T04:07:15;101318.50;;;12.41;100.00
31761;BME280;18335;51.486;7.562;2022-07-17T04:09:55;101329.84;;;12.46;100.00
31761;BME280;18335;51.486;7.562;2022-07-17T04:12:22;101325.44;;;12.62;100.00
31761;BME280;18335;51.486;7.562;2022-07-17T04:14:50;101325.28;;;12.64;100.00
31761;BME280;18335;51.486;7.562;2022-07-17T04:17:17;101319.97;;;12.62;100.00
31761;BME280;18335;51.486;7.562;2022-07-17T04:19:44;101329.16;;;12.71;100.00
31761;BME280;18335;51.486;7.562;2022-07-17T04:22:11;101325.03;;;13.02;100.00
31761;BME280;18335;51.486;7.562;2022-07-17T04:24:37;101331.00;;;12.98;100.00
31761;BME280;18335;51.486;7.562;2022-07-17T04:27:04;101334.09;;;13.12;100.00
31761;BME280;18335;51.486;7.562;2022-07-17T04:29:31;101335.47;;;12.99;100.00
31761;BME280;18335;51.486;7.562;2022-07-17T04:31:59;101335.47;;;12.99;100.00
31761;BME280;18335;51.486;7.562;2022-07-17T04:34:26;101330.09;;;13.24;100.00
31761;BME280;18335;51.486;7.562;2022-07-17T04:36:53;101328.78;;;13.28;100.00
31761;BME280;18335;51.486;7.562;2022-07-17T04:39:20;101320.16;;;13.59;100.00
31761;BME280;18335;51.486;7.562;2022-07-17T04:41:48;101327.03;;;13.63;100.00
31761;BME280;18335;51.486;7.562;2022-07-17T04:44:15;101321.41;;;13.64;100.00
31761;BME280;18335;51.486;7.562;2022-07-17T04:46:42;101319.69;;;13.89;100.00
31761;BME280;18335;51.486;7.562;2022-07-17T04:49:10;101317.00;;;13.97;100.00
31761;BME280;18335;51.486;7.562;2022-07-17T04:51:37;101318.13;;;13.86;100.00
31761;BME280;18335;51.486;7.562;2022-07-17T04:54:03;101314.47;;;14.04;100.00
31761;BME280;18335;51.486;7.562;2022-07-17T04:56:30;101315.53;;;14.11;100.00
31761;BME280;18335;51.486;7.562;2022-07-17T04:58:57;101317.50;;;14.18;100.00
31761;BME280;18335;51.486;7.562;2022-07-17T05:01:24;101308.97;;;14.29;100.00
31761;BME280;18335;51.486;7.562;2022-07-17T05:03:51;101325.06;;;14.24;100.00
31761;BME280;18335;51.486;7.562;2022-07-17T05:06:19;101322.00;;;14.27;100.00
31761;BME280;18335;51.486;7.562;2022-07-17T05:08:45;101323.44;;;14.39;100.00
31761;BME280;18335;51.486;7.562;2022-07-17T05:11:12;101339.34;;;14.54;100.00
31761;BME280;18335;51.486;7.562;2022-07-17T05:13:39;101337.16;;;14.65;100.00
31761;BME280;18335;51.486;7.562;2022-07-17T05:16:06;101340.84;;;14.90;100.00
31761;BME280;18335;51.486;7.562;2022-07-17T05:18:33;101339.84;;;14.99;100.00
31761;BME280;18335;51.486;7.562;2022-07-17T05:20:59;101342.06;;;14.95;100.00
31761;BME280;18335;51.486;7.562;2022-07-17T05:23:27;101339.47;;;14.86;100.00
31761;BME280;18335;51.486;7.562;2022-07-17T05:25:54;101353.94;;;15.04;100.00
31761;BME280;18335;51.486;7.562;2022-07-17T05:28:21;101354.00;;;15.28;100.00
31761;BME280;18335;51.486;7.562;2022-07-17T05:30:47;101357.09;;;15.41;100.00
31761;BME280;18335;51.486;7.562;2022-07-17T05:33:14;101360.22;;;15.46;100.00
31761;BME280;18335;51.486;7.562;2022-07-17T05:35:41;101355.88;;;15.28;100.00
31761;BME280;18335;51.486;7.562;2022-07-17T05:38:09;101367.16;;;15.67;100.00
31761;BME280;18335;51.486;7.562;2022-07-17T05:40:37;101364.75;;;15.64;100.00
31761;BME280;18335;51.486;7.562;2022-07-17T05:43:04;101362.84;;;15.80;100.00
31761;BME280;18335;51.486;7.562;2022-07-17T05:45:31;101355.09;;;15.92;100.00
31761;BME280;18335;51.486;7.562;2022-07-17T05:47:57;101348.06;;;15.97;100.00
31761;BME280;18335;51.486;7.562;2022-07-17T05:50:24;101349.91;;;16.21;100.00
31761;BME280;18335;51.486;7.562;2022-07-17T05:52:51;101336.97;;;16.30;100.00
31761;BME280;18335;51.486;7.562;2022-07-17T05:55:17;101336.38;;;16.58;100.00
31761;BME280;18335;51.486;7.562;2022-07-17T05:57:46;101339.09;;;16.75;100.00
31761;BME280;18335;51.486;7.562;2022-07-17T06:00:13;101341.53;;;16.62;100.00
31761;BME280;18335;51.486;7.562;2022-07-17T06:02:41;101329.41;;;16.87;100.00
31761;BME280;18335;51.486;7.562;2022-07-17T06:05:08;101329.78;;;17.06;100.00
31761;BME280;18335;51.486;7.562;2022-07-17T06:07:34;101317.97;;;17.21;100.00
31761;BME280;18335;51.486;7.562;2022-07-17T06:10:02;101337.44;;;16.96;100.00
31761;BME280;18335;51.486;7.562;2022-07-17T06:12:28;101324.00;;;17.24;100.00
31761;BME280;18335;51.486;7.562;2022-07-17T06:14:56;101333.72;;;17.12;100.00
31761;BME280;18335;51.486;7.562;2022-07-17T06:17:23;101334.16;;;17.24;100.00
31761;BME280;18335;51.486;7.562;2022-07-17T06:19:50;101335.00;;;17.32;100.00
31761;BME280;18335;51.486;7.562;2022-07-17T06:22:17;101334.47;;;17.51;100.00
31761;BME280;18335;51.486;7.562;2022-07-17T06:24:45;101329.25;;;17.64;100.00
31761;BME280;18335;51.486;7.562;2022-07-17T06:27:12;101335.59;;;17.88;100.00
31761;BME280;18335;51.486;7.562;2022-07-17T06:29:38;101325.56;;;18.09;100.00
31761;BME280;18335;51.486;7.562;2022-07-17T06:32:07;101335.16;;;18.13;100.00
31761;BME280;18335;51.486;7.562;2022-07-17T06:34:34;101341.34;;;18.01;99.27
31761;BME280;18335;51.486;7.562;2022-07-17T06:37:00;101341.78;;;18.27;98.48
31761;BME280;18335;51.486;7.562;2022-07-17T06:39:27;101346.59;;;18.10;100.00
31761;BME280;18335;51.486;7.562;2022-07-17T06:41:54;101339.88;;;18.42;99.53
31761;BME280;18335;51.486;7.562;2022-07-17T06:44:20;101340.25;;;18.39;100.00
31761;BME280;18335;51.486;7.562;2022-07-17T06:46:47;101350.88;;;18.65;97.60
31761;BME280;18335;51.486;7.562;2022-07-17T06:49:15;101357.59;;;18.33;100.00
31761;BME280;18335;51.486;7.562;2022-07-17T06:51:42;101351.34;;;18.68;100.00
31761;BME280;18335;51.486;7.562;2022-07-17T06:54:11;101346.09;;;18.59;98.73
31761;BME280;18335;51.486;7.562;2022-07-17T06:56:38;101348.31;;;18.63;100.00
31761;BME280;18335;51.486;7.562;2022-07-17T06:59:04;101332.59;;;19.00;94.20
31761;BME280;18335;51.486;7.562;2022-07-17T07:01:32;101331.53;;;18.65;97.81
31761;BME280;18335;51.486;7.562;2022-07-17T07:03:59;101328.97;;;19.14;94.21
31761;BME280;18335;51.486;7.562;2022-07-17T07:06:27;101333.75;;;18.91;99.44
31761;BME280;18335;51.486;7.562;2022-07-17T07:08:54;101340.03;;;19.14;95.43
31761;BME280;18335;51.486;7.562;2022-07-17T07:11:21;101343.69;;;19.50;90.93
31761;BME280;18335;51.486;7.562;2022-07-17T07:13:48;101353.16;;;19.62;91.10
31761;BME280;18335;51.486;7.562;2022-07-17T07:16:15;101355.09;;;19.83;91.49
31761;BME280;18335;51.486;7.562;2022-07-17T07:18:41;101347.22;;;19.86;86.94
31761;BME280;18335;51.486;7.562;2022-07-17T07:21:08;101349.06;;;19.58;90.52
31761;BME280;18335;51.486;7.562;2022-07-17T07:23:36;101358.03;;;19.60;89.41
31761;BME280;18335;51.486;7.562;2022-07-17T07:26:03;101343.47;;;19.94;86.43
31761;BME280;18335;51.486;7.562;2022-07-17T07:28:30;101334.25;;;20.15;85.43
31761;BME280;18335;51.486;7.562;2022-07-17T07:30:57;101330.13;;;20.32;82.87
31761;BME280;18335;51.486;7.562;2022-07-17T07:33:23;101314.13;;;20.27;84.92
31761;BME280;18335;51.486;7.562;2022-07-17T07:35:50;101315.88;;;20.35;81.76
31761;BME280;18335;51.486;7.562;2022-07-17T07:38:17;101305.66;;;20.35;82.32
31761;BME280;18335;51.486;7.562;2022-07-17T07:40:46;101296.31;;;20.84;80.07
31761;BME280;18335;51.486;7.562;2022-07-17T07:43:12;101296.63;;;20.61;80.35
31761;BME280;18335;51.486;7.562;2022-07-17T07:45:39;101285.53;;;20.61;80.79
31761;BME280;18335;51.486;7.562;2022-07-17T07:48:06;101297.31;;;21.11;79.95
31761;BME280;18335;51.486;7.562;2022-07-17T07:50:33;101297.97;;;21.19;78.32
31761;BME280;18335;51.486;7.562;2022-07-17T07:52:59;101308.94;;;21.47;77.12
31761;BME280;18335;51.486;7.562;2022-07-17T07:55:26;101310.22;;;21.58;76.78
31761;BME280;18335;51.486;7.562;2022-07-17T07:58:02;101307.16;;;21.33;77.66
31761;BME280;18335;51.486;7.562;2022-07-17T08:00:29;101314.72;;;21.59;77.02
31761;BME280;18335;51.486;7.562;2022-07-17T08:02:56;101314.09;;;21.76;75.98
31761;BME280;18335;51.486;7.562;2022-07-17T08:05:22;101317.06;;;21.81;73.29
31761;BME280;18335;51.486;7.562;2022-07-17T08:07:49;101312.44;;;21.95;74.09
31761;BME280;18335;51.486;7.562;2022-07-17T08:10:16;101315.38;;;21.74;70.02
31761;BME280;18335;51.486;7.562;2022-07-17T08:12:43;101318.19;;;22.13;70.65
31761;BME280;18335;51.486;7.562;2022-07-17T08:15:11;101322.66;;;22.14;67.29
31761;BME280;18335;51.486;7.562;2022-07-17T08:17:38;101316.66;;;22.37;66.75
31761;BME280;18335;51.486;7.562;2022-07-17T08:20:06;101323.03;;;22.50;66.46
31761;BME280;18335;51.486;7.562;2022-07-17T08:22:33;101328.63;;;22.44;64.04
31761;BME280;18335;51.486;7.562;2022-07-17T08:25:00;101324.78;;;22.32;63.55
31761;BME280;18335;51.486;7.562;2022-07-17T08:27:27;101330.50;;;22.63;62.75
31761;BME280;18335;51.486;7.562;2022-07-17T08:29:53;101330.97;;;22.40;64.23
31761;BME280;18335;51.486;7.562;2022-07-17T08:32:21;101328.16;;;22.73;65.13
31761;BME280;18335;51.486;7.562;2022-07-17T08:34:48;101329.47;;;22.38;63.58
31761;BME280;18335;51.486;7.562;2022-07-17T08:37:15;101345.22;;;22.90;69.04
31761;BME280;18335;51.486;7.562;2022-07-17T08:39:41;101333.59;;;23.06;63.77
31761;BME280;18335;51.486;7.562;2022-07-17T08:42:08;101348.44;;;23.38;63.04
31761;BME280;18335;51.486;7.562;2022-07-17T08:44:41;101343.31;;;22.84;62.58
31761;BME280;18335;51.486;7.562;2022-07-17T08:47:08;101340.22;;;23.11;63.93
31761;BME280;18335;51.486;7.562;2022-07-17T08:49:40;101346.91;;;22.97;64.13
31761;BME280;18335;51.486;7.562;2022-07-17T08:52:09;101345.13;;;23.09;62.85
31761;BME280;18335;51.486;7.562;2022-07-17T08:54:35;101342.28;;;22.52;60.12
31761;BME280;18335;51.486;7.562;2022-07-17T08:57:02;101345.41;;;23.01;61.49
31761;BME280;18335;51.486;7.562;2022-07-17T08:59:29;101355.09;;;22.79;62.33
31761;BME280;18335;51.486;7.562;2022-07-17T09:01:58;101348.75;;;23.17;62.40
31761;BME280;18335;51.486;7.562;2022-07-17T09:04:25;101349.66;;;23.04;62.10
31761;BME280;18335;51.486;7.562;2022-07-17T09:07:00;101351.44;;;23.43;64.88
31761;BME280;18335;51.486;7.562;2022-07-17T09:09:28;101345.88;;;23.43;61.41
31761;BME280;18335;51.486;7.562;2022-07-17T09:11:57;101343.41;;;23.15;67.36
31761;BME280;18335;51.486;7.562;2022-07-17T09:14:36;101340.31;;;23.30;64.98
31761;BME280;18335;51.486;7.562;2022-07-17T09:17:04;101334.97;;;23.73;65.33
31761;BME280;18335;51.486;7.562;2022-07-17T09:19:33;101331.31;;;23.72;59.12
31761;BME280;18335;51.486;7.562;2022-07-17T09:22:06;101338.66;;;23.66;58.17
31761;BME280;18335;51.486;7.562;2022-07-17T09:24:45;101334.47;;;23.82;61.59
31761;BME280;18335;51.486;7.562;2022-07-17T09:27:15;101332.47;;;24.20;57.76
31761;BME280;18335;51.486;7.562;2022-07-17T09:29:52;101320.75;;;24.55;57.36
31761;BME280;18335;51.486;7.562;2022-07-17T09:32:19;101320.28;;;24.58;57.83
31761;BME280;18335;51.486;7.562;2022-07-17T09:34:46;101332.41;;;23.96;60.01
31761;BME280;18335;51.486;7.562;2022-07-17T09:37:15;101318.59;;;24.75;56.82
31761;BME280;18335;51.486;7.562;2022-07-17T09:39:42;101322.81;;;24.84;54.25
31761;BME280;18335;51.486;7.562;2022-07-17T09:42:10;101323.78;;;24.71;52.19
31761;BME280;18335;51.486;7.562;2022-07-17T09:44:54;101330.34;;;24.59;52.68
31761;BME280;18335;51.486;7.562;2022-07-17T09:47:22;101320.56;;;24.50;51.54
31761;BME280;18335;51.486;7.562;2022-07-17T09:49:50;101312.97;;;24.82;51.29
31761;BME280;18335;51.486;7.562;2022-07-17T09:52:18;101314.88;;;24.63;50.61
31761;BME280;18335;51.486;7.562;2022-07-17T09:54:46;101303.50;;;25.49;50.67
31761;BME280;18335;51.486;7.562;2022-07-17T09:57:14;101301.16;;;24.98;49.38
31761;BME280;18335;51.486;7.562;2022-07-17T09:59:42;101302.69;;;25.12;50.49
31761;BME280;18335;51.486;7.562;2022-07-17T10:02:10;101301.09;;;24.86;48.17
31761;BME280;18335;51.486;7.562;2022-07-17T10:04:37;101297.81;;;25.55;46.69
31761;BME280;18335;51.486;7.562;2022-07-17T10:07:04;101306.13;;;25.44;47.60
31761;BME280;18335;51.486;7.562;2022-07-17T10:09:35;101302.34;;;25.68;46.55
31761;BME280;18335;51.486;7.562;2022-07-17T10:12:04;101294.34;;;25.83;46.75
31761;BME280;18335;51.486;7.562;2022-07-17T10:14:32;101294.34;;;25.42;43.81
31761;BME280;18335;51.486;7.562;2022-07-17T10:17:06;101297.16;;;25.95;44.91
31761;BME280;18335;51.486;7.562;2022-07-17T10:19:33;101306.22;;;26.20;46.57
31761;BME280;18335;51.486;7.562;2022-07-17T10:22:04;101307.56;;;25.76;44.70
31761;BME280;18335;51.486;7.562;2022-07-17T10:24:32;101301.50;;;25.19;43.68
31761;BME280;18335;51.486;7.562;2022-07-17T10:27:00;101306.06;;;25.50;47.21
31761;BME280;18335;51.486;7.562;2022-07-17T10:29:29;101308.53;;;25.70;48.78
31761;BME280;18335;51.486;7.562;2022-07-17T10:31:57;101315.72;;;25.48;47.99
31761;BME280;18335;51.486;7.562;2022-07-17T10:34:42;101312.31;;;25.46;49.32
31761;BME280;18335;51.486;7.562;2022-07-17T10:37:20;101311.53;;;25.57;49.39
31761;BME280;18335;51.486;7.562;2022-07-17T10:40:14;101305.47;;;25.60;48.59
31761;BME280;18335;51.486;7.562;2022-07-17T10:42:57;101303.81;;;25.82;50.82
31761;BME280;18335;51.486;7.562;2022-07-17T10:45:29;101311.13;;;25.83;50.40
31761;BME280;18335;51.486;7.562;2022-07-17T10:48:00;101301.47;;;26.20;44.97
31761;BME280;18335;51.486;7.562;2022-07-17T10:50:30;101302.81;;;26.18;48.04
31761;BME280;18335;51.486;7.562;2022-07-17T10:53:06;101298.81;;;26.49;43.90
31761;BME280;18335;51.486;7.562;2022-07-17T10:55:35;101297.97;;;26.36;42.91
31761;BME280;18335;51.486;7.562;2022-07-17T10:58:04;101296.00;;;26.25;42.39
31761;BME280;18335;51.486;7.562;2022-07-17T11:00:39;101292.34;;;26.48;41.70
31761;BME280;18335;51.486;7.562;2022-07-17T11:03:10;101298.25;;;26.98;41.29
31761;BME280;18335;51.486;7.562;2022-07-17T11:05:37;101300.75;;;26.36;41.70
31761;BME280;18335;51.486;7.562;2022-07-17T11:08:04;101299.16;;;26.29;40.51
31761;BME280;18335;51.486;7.562;2022-07-17T11:10:35;101290.72;;;26.87;39.73
31761;BME280;18335;51.486;7.562;2022-07-17T11:13:13;101296.34;;;26.87;39.72
31761;BME280;18335;51.486;7.562;2022-07-17T11:15:43;101292.19;;;26.78;40.57
31761;BME280;18335;51.486;7.562;2022-07-17T11:18:15;101298.53;;;26.62;41.92
31761;BME280;18335;51.486;7.562;2022-07-17T11:20:50;101282.44;;;26.92;38.83
31761;BME280;18335;51.486;7.562;2022-07-17T11:23:17;101284.06;;;26.53;37.88
31761;BME280;18335;51.486;7.562;2022-07-17T11:25:59;101282.66;;;27.30;38.69
31761;BME280;18335;51.486;7.562;2022-07-17T11:28:34;101282.53;;;27.09;38.92
31761;BME280;18335;51.486;7.562;2022-07-17T11:31:02;101278.91;;;27.25;43.84
31761;BME280;18335;51.486;7.562;2022-07-17T11:33:29;101276.56;;;27.62;39.77
31761;BME280;18335;51.486;7.562;2022-07-17T11:35:56;101284.19;;;27.50;40.50
31761;BME280;18335;51.486;7.562;2022-07-17T11:38:25;101277.00;;;27.54;40.79
31761;BME280;18335;51.486;7.562;2022-07-17T11:40:52;101276.16;;;27.41;39.97
31761;BME280;18335;51.486;7.562;2022-07-17T11:43:19;101273.31;;;27.53;41.49
31761;BME280;18335;51.486;7.562;2022-07-17T11:45:47;101280.63;;;27.54;38.25
31761;BME280;18335;51.486;7.562;2022-07-17T11:48:14;101280.56;;;27.66;38.98
31761;BME280;18335;51.486;7.562;2022-07-17T11:50:52;101275.66;;;26.88;39.96
31761;BME280;18335;51.486;7.562;2022-07-17T11:53:30;101280.22;;;27.62;44.76
31761;BME280;18335;51.486;7.562;2022-07-17T11:55:57;101275.81;;;27.38;38.50
31761;BME280;18335;51.486;7.562;2022-07-17T11:58:24;101276.91;;;27.82;38.88
31761;BME280;18335;51.486;7.562;2022-07-17T12:01:01;101272.78;;;28.34;38.31
31761;BME280;18335;51.486;7.562;2022-07-17T12:03:28;101269.81;;;28.24;39.31
31761;BME280;18335;51.486;7.562;2022-07-17T12:05:55;101264.13;;;28.19;39.43
31761;BME280;18335;51.486;7.562;2022-07-17T12:08:22;101264.34;;;28.34;38.55
31761;BME280;18335;51.486;7.562;2022-07-17T12:10:59;101268.72;;;28.25;39.51
31761;BME280;18335;51.486;7.562;2022-07-17T12:13:37;101260.41;;;28.02;37.41
31761;BME280;18335;51.486;7.562;2022-07-17T12:16:18;101269.03;;;28.12;40.63
31761;BME280;18335;51.486;7.562;2022-07-17T12:18:55;101270.34;;;28.05;37.65
31761;BME280;18335;51.486;7.562;2022-07-17T12:21:22;101265.63;;;28.27;40.15
31761;BME280;18335;51.486;7.562;2022-07-17T12:23:57;101259.84;;;28.33;37.77
31761;BME280;18335;51.486;7.562;2022-07-17T12:26:24;101258.63;;;27.96;36.58
31761;BME280;18335;51.486;7.562;2022-07-17T12:28:51;101248.38;;;28.18;38.53
31761;BME280;18335;51.486;7.562;2022-07-17T12:31:19;101261.44;;;27.96;38.89
31761;BME280;18335;51.486;7.562;2022-07-17T12:33:46;101250.16;;;27.91;38.63
31761;BME280;18335;51.486;7.562;2022-07-17T12:36:14;101250.84;;;27.98;38.59
31761;BME280;18335;51.486;7.562;2022-07-17T12:38:41;101237.81;;;28.25;38.36
31761;BME280;18335;51.486;7.562;2022-07-17T12:41:08;101247.97;;;28.10;37.04
31761;BME280;18335;51.486;7.562;2022-07-17T12:43:35;101244.25;;;28.42;37.61
31761;BME280;18335;51.486;7.562;2022-07-17T12:46:02;101249.13;;;28.30;39.39
31761;BME280;18335;51.486;7.562;2022-07-17T12:48:31;101240.41;;;28.48;36.33
31761;BME280;18335;51.486;7.562;2022-07-17T12:50:58;101246.47;;;28.62;34.13